Time;durP1;ratioP1;P1;durP2;ratioP2;P2;SDS_P1;SDS_P2;PMS_P1;PMS_P2;Temp;Humidity;BMP_temperature;BMP_pressure;BME280_temperature;BME280_humidity;BME280_pressure;Samples;Min_cycle;Max_cycle;Signal;HPM_P1;HPM_P2
2022/03/06 00:02:01;;;;;;;32.17;13.70;;;-1.00;97.90;;;;;;4997687;28;20414;-73
2022/03/06 00:04:27;;;;;;;26.60;12.90;;;-1.00;98.10;;;;;;5006643;28;20453;-73
2022/03/06 00:06:53;;;;;;;31.95;13.65;;;-1.00;98.20;;;;;;5010400;28;20022;-73
2022/03/06 00:09:18;;;;;;;26.35;13.63;;;-1.10;98.30;;;;;;5013738;28;20068;-72
2022/03/06 00:11:44;;;;;;;26.92;13.35;;;-1.10;98.30;;;;;;5009542;28;20041;-73
2022/03/06 00:14:10;;;;;;;26.30;12.13;;;-1.20;98.60;;;;;;5011998;28;20092;-73
2022/03/06 00:16:35;;;;;;;26.60;12.07;;;-1.20;99.20;;;;;;5011203;28;20026;-73
2022/03/06 00:19:01;;;;;;;26.10;12.23;;;-1.20;99.10;;;;;;5010106;28;20458;-73
2022/03/06 00:21:27;;;;;;;29.50;12.38;;;-1.20;99.30;;;;;;4992834;28;20438;-71
2022/03/06 00:23:53;;;;;;;29.02;13.00;;;-1.30;99.20;;;;;;5008942;28;20075;-72
2022/03/06 00:26:18;;;;;;;26.42;12.20;;;-1.40;99.20;;;;;;5003555;28;20084;-72
2022/03/06 00:28:44;;;;;;;31.10;13.48;;;-1.40;99.60;;;;;;5004642;28;20025;-72
2022/03/06 00:31:10;;;;;;;24.75;12.38;;;-1.40;99.90;;;;;;5008056;28;20029;-72
2022/03/06 00:33:35;;;;;;;25.13;13.30;;;-1.50;99.90;;;;;;4990091;28;20022;-72
2022/03/06 00:36:01;;;;;;;25.52;12.60;;;-1.50;99.90;;;;;;5005332;28;20030;-72
2022/03/06 00:38:28;;;;;;;27.23;12.95;;;-1.60;99.90;;;;;;4991273;28;20025;-71
2022/03/06 00:40:53;;;;;;;29.42;12.65;;;-1.70;99.90;;;;;;4988711;28;20097;-72
2022/03/06 00:43:19;;;;;;;26.95;12.07;;;-1.70;99.90;;;;;;5008627;28;20129;-72
2022/03/06 00:45:45;;;;;;;27.30;12.50;;;-1.70;99.90;;;;;;5003157;28;20033;-72
2022/03/06 00:48:11;;;;;;;22.08;11.82;;;-1.80;99.90;;;;;;5007878;28;20053;-71
2022/03/06 00:50:38;;;;;;;28.77;13.23;;;-1.80;99.90;;;;;;4996862;28;20030;-72
2022/03/06 00:53:05;;;;;;;26.13;12.60;;;-1.80;99.90;;;;;;5002813;28;20025;-73
2022/03/06 00:55:31;;;;;;;25.48;12.85;;;-1.80;99.90;;;;;;5006621;28;20155;-73
2022/03/06 00:57:57;;;;;;;29.90;13.27;;;-1.90;99.90;;;;;;4991306;28;20515;-72
2022/03/06 01:00:23;;;;;;;27.55;12.20;;;-1.90;99.90;;;;;;5007331;28;20100;-72
2022/03/06 01:02:48;;;;;;;28.55;12.88;;;-1.90;99.90;;;;;;4992350;28;20026;-72
2022/03/06 01:05:14;;;;;;;25.35;12.70;;;-2.00;99.90;;;;;;5006762;28;20041;-72
2022/03/06 01:07:40;;;;;;;26.17;12.18;;;-2.00;99.90;;;;;;5006848;28;20072;-73
2022/03/06 01:10:07;;;;;;;25.48;12.15;;;-2.00;99.90;;;;;;4989752;28;20030;-71
2022/03/06 01:12:33;;;;;;;28.83;13.32;;;-2.00;99.90;;;;;;5008849;28;20036;-72
2022/03/06 01:14:59;;;;;;;27.70;12.27;;;-2.10;99.90;;;;;;5004760;28;20034;-71
2022/03/06 01:17:24;;;;;;;29.70;12.40;;;-2.20;99.90;;;;;;5006951;28;20038;-73
2022/03/06 01:19:50;;;;;;;28.77;11.90;;;-2.20;99.90;;;;;;4989221;28;20042;-72
2022/03/06 01:22:16;;;;;;;34.72;13.20;;;-2.20;99.90;;;;;;5005515;28;20029;-72
2022/03/06 01:24:42;;;;;;;28.75;13.18;;;-2.20;99.90;;;;;;5005027;28;20030;-72
2022/03/06 01:27:08;;;;;;;30.75;12.88;;;-2.20;99.90;;;;;;5005412;28;20037;-73
2022/03/06 01:29:33;;;;;;;25.58;12.05;;;-2.30;99.90;;;;;;5003300;28;20056;-72
2022/03/06 01:31:59;;;;;;;26.88;11.88;;;-2.30;99.90;;;;;;5003788;28;20069;-73
2022/03/06 01:34:25;;;;;;;28.95;12.90;;;-2.20;99.90;;;;;;5004619;28;20022;-72
2022/03/06 01:36:50;;;;;;;29.65;12.32;;;-2.10;99.90;;;;;;5007317;28;20031;-72
2022/03/06 01:39:16;;;;;;;30.02;14.57;;;-2.10;99.90;;;;;;5004961;28;20034;-72
2022/03/06 01:41:42;;;;;;;27.95;13.18;;;-2.10;99.90;;;;;;4990456;28;20023;-72
2022/03/06 01:44:12;;;;;;;30.25;12.63;;;-2.10;99.90;;;;;;5007407;28;20029;-72
2022/03/06 01:46:38;;;;;;;33.25;14.35;;;-2.20;99.90;;;;;;5002685;28;20821;-72
2022/03/06 01:49:04;;;;;;;29.38;13.85;;;-2.20;99.90;;;;;;4991919;28;20030;-72
2022/03/06 01:51:29;;;;;;;32.63;14.23;;;-2.20;99.90;;;;;;4990034;28;20043;-72
2022/03/06 01:53:55;;;;;;;28.45;13.60;;;-2.20;99.90;;;;;;5005119;28;20022;-71
2022/03/06 01:56:21;;;;;;;24.02;11.95;;;-2.30;99.90;;;;;;5005460;28;20026;-72
2022/03/06 01:58:48;;;;;;;31.25;13.63;;;-2.30;99.90;;;;;;5010134;28;20026;-71
2022/03/06 02:01:14;;;;;;;29.45;13.30;;;-2.30;99.90;;;;;;5003991;28;20470;-72
2022/03/06 02:03:40;;;;;;;32.10;14.18;;;-2.30;99.90;;;;;;5007192;28;20029;-72
2022/03/06 02:06:08;;;;;;;31.92;13.52;;;-2.30;99.90;;;;;;5005507;28;20368;-71
2022/03/06 02:08:34;;;;;;;29.80;12.88;;;-2.20;99.90;;;;;;5001596;28;20394;-71
2022/03/06 02:11:00;;;;;;;31.27;12.32;;;-2.20;99.90;;;;;;5001485;28;20030;-72
2022/03/06 02:13:27;;;;;;;27.48;13.65;;;-2.20;99.90;;;;;;4996019;28;20053;-72
2022/03/06 02:15:54;;;;;;;29.85;13.40;;;-2.20;99.90;;;;;;5006858;28;20426;-71
2022/03/06 02:18:19;;;;;;;28.20;13.38;;;-2.20;99.90;;;;;;4992459;28;20121;-71
2022/03/06 02:20:47;;;;;;;31.25;12.88;;;-2.20;99.90;;;;;;5007041;28;20104;-72
2022/03/06 02:23:13;;;;;;;33.28;14.02;;;-2.20;99.90;;;;;;4988966;28;20406;-72
2022/03/06 02:25:38;;;;;;;28.52;12.85;;;-2.10;99.90;;;;;;4989186;28;20022;-71
2022/03/06 02:28:07;;;;;;;27.45;13.07;;;-2.20;99.90;;;;;;5004661;28;20114;-71
2022/03/06 02:30:36;;;;;;;25.98;13.10;;;-2.20;99.90;;;;;;4989461;28;20061;-71
2022/03/06 02:33:05;;;;;;;24.98;11.98;;;-2.30;99.90;;;;;;4999006;28;20391;-71
2022/03/06 02:35:31;;;;;;;25.02;11.57;;;-2.30;99.90;;;;;;5004949;28;20026;-72
2022/03/06 02:37:57;;;;;;;25.88;11.68;;;-2.40;99.90;;;;;;4999970;28;20487;-71
2022/03/06 02:40:23;;;;;;;28.08;12.35;;;-2.40;99.90;;;;;;5004876;28;20029;-71
2022/03/06 02:42:51;;;;;;;26.20;10.80;;;-2.40;99.90;;;;;;4990532;28;20022;-71
2022/03/06 02:45:20;;;;;;;28.95;12.43;;;-2.50;99.90;;;;;;5003001;28;20787;-72
2022/03/06 02:47:46;;;;;;;27.85;12.48;;;-2.50;99.90;;;;;;5005685;28;20486;-71
2022/03/06 02:50:20;;;;;;;26.50;12.25;;;-2.60;99.90;;;;;;4989201;28;20069;-71
2022/03/06 02:52:46;;;;;;;27.08;11.70;;;-2.60;99.90;;;;;;4991646;28;20384;-71
2022/03/06 02:55:14;;;;;;;27.52;11.27;;;-2.60;99.90;;;;;;5006728;28;20031;-71
2022/03/06 02:57:40;;;;;;;26.52;11.82;;;-2.60;99.90;;;;;;5003730;28;20030;-71
2022/03/06 03:00:10;;;;;;;27.45;10.95;;;-2.70;99.90;;;;;;5008011;28;20029;-72
2022/03/06 03:02:37;;;;;;;28.17;13.50;;;-2.60;99.90;;;;;;5003340;28;20132;-71
2022/03/06 03:05:06;;;;;;;27.40;12.45;;;-2.60;99.90;;;;;;5004448;28;20031;-71
2022/03/06 03:07:32;;;;;;;28.77;12.38;;;-2.60;99.90;;;;;;5005126;28;20032;-71
2022/03/06 03:09:58;;;;;;;30.02;12.85;;;-2.60;99.90;;;;;;4990028;28;20030;-70
2022/03/06 03:12:23;;;;;;;25.95;12.23;;;-2.70;99.90;;;;;;4995711;28;20560;-71
2022/03/06 03:14:49;;;;;;;24.13;11.63;;;-2.60;99.90;;;;;;4987917;28;20030;-71
2022/03/06 03:17:15;;;;;;;24.92;11.90;;;-2.60;99.90;;;;;;4989585;28;20422;-71
2022/03/06 03:19:40;;;;;;;25.58;11.30;;;-2.50;99.90;;;;;;5004975;28;20021;-72
2022/03/06 03:22:06;;;;;;;23.38;11.18;;;-2.50;99.90;;;;;;5002573;28;20081;-70
2022/03/06 03:24:32;;;;;;;30.27;12.85;;;-2.50;99.90;;;;;;5057885;23;20524;-69
2022/03/06 03:26:57;;;;;;;31.27;12.45;;;-2.50;99.90;;;;;;5056329;28;20037;-70
2022/03/06 03:29:23;;;;;;;29.23;11.43;;;-2.50;99.90;;;;;;5042728;28;20422;-69
2022/03/06 03:31:49;;;;;;;29.27;12.43;;;-2.50;99.90;;;;;;5043108;28;20579;-69
2022/03/06 03:34:15;;;;;;;28.10;12.25;;;-2.60;99.90;;;;;;5045749;28;20029;-70
2022/03/06 03:36:42;;;;;;;28.45;12.88;;;-2.60;99.90;;;;;;5047068;28;20501;-69
2022/03/06 03:39:07;;;;;;;32.28;13.00;;;-2.60;99.90;;;;;;5043158;28;20040;-69
2022/03/06 03:41:33;;;;;;;28.92;12.82;;;-2.60;99.90;;;;;;5059063;28;20017;-68
2022/03/06 03:43:59;;;;;;;31.88;13.90;;;-2.70;99.90;;;;;;5044100;28;20041;-69
2022/03/06 03:46:24;;;;;;;25.25;11.85;;;-2.60;99.90;;;;;;5048100;28;20025;-69
2022/03/06 03:48:50;;;;;;;32.58;14.02;;;-2.60;99.90;;;;;;5043867;28;20432;-68
2022/03/06 03:51:16;;;;;;;33.17;13.25;;;-2.60;99.90;;;;;;5045627;28;20025;-69
2022/03/06 03:53:42;;;;;;;28.67;12.75;;;-2.60;99.90;;;;;;5038735;28;20222;-69
2022/03/06 03:56:07;;;;;;;31.05;13.35;;;-2.60;99.90;;;;;;5042697;28;20029;-72
2022/03/06 03:58:34;;;;;;;27.55;11.82;;;-2.60;99.90;;;;;;5037458;28;20025;-69
2022/03/06 04:01:00;;;;;;;30.73;12.50;;;-2.70;99.90;;;;;;5046613;28;20565;-68
2022/03/06 04:03:26;;;;;;;25.38;12.02;;;-2.80;99.90;;;;;;5054989;28;20024;-69
2022/03/06 04:05:53;;;;;;;29.60;13.43;;;-2.80;99.90;;;;;;5043468;28;20112;-71
2022/03/06 04:08:19;;;;;;;31.00;13.18;;;-2.80;99.90;;;;;;5041622;28;20056;-68
2022/03/06 04:10:45;;;;;;;25.50;13.00;;;-2.80;99.90;;;;;;5039219;28;20111;-69
2022/03/06 04:13:11;;;;;;;29.08;13.77;;;-2.90;99.90;;;;;;5043272;28;20045;-69
2022/03/06 04:15:37;;;;;;;27.40;12.50;;;-2.90;99.90;;;;;;5046286;28;20447;-70
2022/03/06 04:18:03;;;;;;;30.35;13.60;;;-2.90;99.90;;;;;;5053072;28;20040;-67
2022/03/06 04:20:29;;;;;;;27.90;13.38;;;-2.90;99.90;;;;;;5044038;28;20037;-68
2022/03/06 04:22:56;;;;;;;27.92;11.57;;;-2.80;99.90;;;;;;5036593;28;20090;-70
2022/03/06 04:25:22;;;;;;;27.75;12.18;;;-2.90;99.90;;;;;;5044474;28;20051;-69
2022/03/06 04:27:48;;;;;;;29.60;12.38;;;-3.00;99.90;;;;;;5040471;28;20036;-70
2022/03/06 04:30:13;;;;;;;27.02;12.15;;;-3.00;99.90;;;;;;5055914;28;20021;-70
2022/03/06 04:32:39;;;;;;;27.10;12.27;;;-3.00;99.90;;;;;;5044747;28;20088;-71
2022/03/06 04:35:06;;;;;;;32.45;13.18;;;-3.00;99.90;;;;;;5048784;28;20394;-70
2022/03/06 04:37:32;;;;;;;29.30;13.30;;;-3.00;99.90;;;;;;5041476;28;20059;-69
2022/03/06 04:39:57;;;;;;;30.88;13.73;;;-3.00;99.90;;;;;;5041643;28;20028;-70
2022/03/06 04:42:23;;;;;;;29.00;13.05;;;-3.10;99.90;;;;;;5039938;28;20021;-70
2022/03/06 04:44:49;;;;;;;30.88;14.32;;;-3.10;99.90;;;;;;5044114;28;20090;-70
2022/03/06 04:47:15;;;;;;;25.55;12.82;;;-3.10;99.90;;;;;;5047886;28;20469;-69
2022/03/06 04:49:41;;;;;;;31.55;13.20;;;-3.10;99.90;;;;;;5047721;28;20035;-70
2022/03/06 04:52:07;;;;;;;31.02;12.60;;;-3.10;99.90;;;;;;5047108;28;20032;-71
2022/03/06 04:54:33;;;;;;;28.67;13.00;;;-3.10;99.90;;;;;;5043823;28;20028;-70
2022/03/06 04:57:00;;;;;;;31.25;13.68;;;-3.10;99.90;;;;;;5040879;28;20352;-70
2022/03/06 04:59:26;;;;;;;34.30;12.70;;;-3.10;99.90;;;;;;5042167;28;20028;-70
2022/03/06 05:01:52;;;;;;;30.48;13.13;;;-3.10;99.90;;;;;;5053262;28;20033;-70
2022/03/06 05:04:18;;;;;;;26.75;11.98;;;-3.10;99.90;;;;;;5049355;28;20504;-69
2022/03/06 05:06:43;;;;;;;27.02;12.35;;;-3.20;99.90;;;;;;5048129;28;20021;-69
2022/03/06 05:09:09;;;;;;;28.33;12.32;;;-3.20;99.90;;;;;;5044869;28;20052;-69
2022/03/06 05:11:34;;;;;;;30.98;12.75;;;-3.20;99.90;;;;;;5045518;28;20421;-69
2022/03/06 05:14:00;;;;;;;26.30;11.45;;;-3.20;99.90;;;;;;5044330;28;20027;-70
2022/03/06 05:16:26;;;;;;;28.00;11.77;;;-3.30;99.90;;;;;;5045314;28;20105;-68
2022/03/06 05:18:51;;;;;;;29.27;12.52;;;-3.30;99.90;;;;;;5041509;28;20033;-70
2022/03/06 05:21:17;;;;;;;30.02;12.63;;;-3.30;99.90;;;;;;5045149;28;20484;-70
2022/03/06 05:23:42;;;;;;;26.63;12.05;;;-3.30;99.90;;;;;;5048741;28;20033;-69
2022/03/06 05:26:08;;;;;;;29.15;12.13;;;-3.30;99.90;;;;;;5048174;28;20083;-69
2022/03/06 05:28:34;;;;;;;28.48;11.82;;;-3.30;99.90;;;;;;5048448;28;20042;-70
2022/03/06 05:31:00;;;;;;;27.45;12.25;;;-3.40;99.90;;;;;;5042201;28;20032;-69
2022/03/06 05:33:25;;;;;;;30.42;13.63;;;-3.40;99.90;;;;;;5044213;28;20033;-69
2022/03/06 05:35:51;;;;;;;34.63;12.98;;;-3.40;99.90;;;;;;5043634;28;20025;-70
2022/03/06 05:38:17;;;;;;;29.75;12.18;;;-3.40;99.90;;;;;;5049611;28;20469;-70
2022/03/06 05:40:42;;;;;;;29.23;11.80;;;-3.40;99.90;;;;;;5047470;28;20116;-70
2022/03/06 05:43:08;;;;;;;32.90;15.38;;;-3.50;99.90;;;;;;5044621;28;20017;-70
2022/03/06 05:45:34;;;;;;;30.50;12.95;;;-3.50;99.90;;;;;;5047436;28;20024;-68
2022/03/06 05:47:59;;;;;;;28.27;12.93;;;-3.40;99.90;;;;;;5047736;28;20438;-70
2022/03/06 05:50:25;;;;;;;27.63;12.27;;;-3.40;99.90;;;;;;5044655;28;20355;-69
2022/03/06 05:52:51;;;;;;;30.23;13.40;;;-3.50;99.90;;;;;;5045090;28;20045;-69
2022/03/06 05:55:17;;;;;;;35.70;13.23;;;-3.60;99.90;;;;;;5047734;28;20124;-67
2022/03/06 05:57:44;;;;;;;29.17;12.68;;;-3.60;99.90;;;;;;5045650;28;20550;-69
2022/03/06 06:00:11;;;;;;;31.63;12.05;;;-3.60;99.90;;;;;;5043825;28;20048;-70
2022/03/06 06:02:38;;;;;;;31.10;12.60;;;-3.60;99.90;;;;;;5043973;28;20030;-69
2022/03/06 06:05:05;;;;;;;32.15;12.75;;;-3.60;99.90;;;;;;5045887;28;20056;-70
2022/03/06 06:07:32;;;;;;;35.65;14.40;;;-3.60;99.90;;;;;;5045350;28;20587;-70
2022/03/06 06:09:57;;;;;;;29.98;13.07;;;-3.50;99.90;;;;;;5044750;28;20021;-71
2022/03/06 06:12:23;;;;;;;34.58;13.65;;;-3.50;99.90;;;;;;5046357;28;20028;-69
2022/03/06 06:14:49;;;;;;;31.02;13.60;;;-3.50;99.90;;;;;;5046829;28;20520;-71
2022/03/06 06:17:14;;;;;;;30.38;13.10;;;-3.50;99.90;;;;;;5047967;28;20025;-70
2022/03/06 06:19:40;;;;;;;32.28;13.30;;;-3.50;99.90;;;;;;5046103;28;20509;-70
2022/03/06 06:22:06;;;;;;;31.38;12.85;;;-3.40;99.90;;;;;;5046431;28;20025;-70
2022/03/06 06:24:31;;;;;;;28.67;13.68;;;-3.40;99.90;;;;;;5043660;28;20041;-70
2022/03/06 06:26:57;;;;;;;34.33;13.73;;;-3.40;99.90;;;;;;5046842;28;20090;-70
2022/03/06 06:29:23;;;;;;;29.27;13.75;;;-3.40;99.90;;;;;;5041066;28;20037;-70
2022/03/06 06:31:51;;;;;;;29.73;12.80;;;-3.30;99.90;;;;;;5046450;28;20028;-70
2022/03/06 06:34:17;;;;;;;33.17;12.65;;;-3.30;99.90;;;;;;5043758;28;20119;-70
2022/03/06 06:36:43;;;;;;;30.40;13.88;;;-3.30;99.90;;;;;;5041484;28;20041;-70
2022/03/06 06:39:12;;;;;;;31.58;13.25;;;-3.30;99.90;;;;;;5041363;28;20351;-69
2022/03/06 06:41:39;;;;;;;29.60;13.00;;;-3.30;99.90;;;;;;5048254;28;20017;-69
2022/03/06 06:44:05;;;;;;;25.67;12.75;;;-3.30;99.90;;;;;;5040985;28;20027;-68
2022/03/06 06:46:31;;;;;;;29.02;12.48;;;-3.20;99.90;;;;;;5041752;28;20108;-70
2022/03/06 06:48:57;;;;;;;27.13;12.52;;;-3.20;99.90;;;;;;5039214;28;20584;-69
2022/03/06 06:51:22;;;;;;;29.60;13.30;;;-3.20;99.90;;;;;;5047112;28;20028;-69
2022/03/06 06:53:48;;;;;;;32.33;14.10;;;-3.20;99.90;;;;;;5046382;28;20036;-69
2022/03/06 06:56:14;;;;;;;26.80;12.30;;;-3.20;99.90;;;;;;5040266;28;20036;-69
2022/03/06 06:58:39;;;;;;;27.55;12.95;;;-3.20;99.90;;;;;;5041952;28;20036;-69
2022/03/06 07:01:05;;;;;;;33.17;13.60;;;-3.20;99.90;;;;;;5034509;28;20033;-69
2022/03/06 07:03:31;;;;;;;27.90;13.05;;;-3.10;99.90;;;;;;5033684;28;20021;-69
2022/03/06 07:05:58;;;;;;;28.73;12.57;;;-3.10;99.90;;;;;;5038077;28;20024;-68
2022/03/06 07:08:24;;;;;;;29.10;13.15;;;-3.00;99.90;;;;;;5041844;28;20025;-68
2022/03/06 07:10:50;;;;;;;31.67;13.93;;;-2.90;99.90;;;;;;5049932;28;20071;-68
2022/03/06 07:13:16;;;;;;;29.40;13.35;;;-2.80;99.90;;;;;;5044206;28;20064;-68
2022/03/06 07:15:41;;;;;;;30.27;13.30;;;-2.70;99.90;;;;;;5041400;28;20043;-70
2022/03/06 07:18:07;;;;;;;28.23;12.68;;;-2.60;99.90;;;;;;5038598;28;20032;-70
2022/03/06 07:20:33;;;;;;;30.35;14.07;;;-2.50;99.90;;;;;;5040311;28;20111;-68
2022/03/06 07:22:58;;;;;;;30.55;13.25;;;-2.40;99.90;;;;;;5043629;28;20107;-69
2022/03/06 07:25:24;;;;;;;30.58;12.52;;;-2.30;99.90;;;;;;5042232;28;20469;-69
2022/03/06 07:27:50;;;;;;;35.72;13.70;;;-2.20;99.90;;;;;;5045291;28;20074;-69
2022/03/06 07:30:16;;;;;;;32.05;14.35;;;-2.00;99.90;;;;;;5041323;28;20332;-69
2022/03/06 07:32:52;;;;;;;30.25;13.55;;;-1.90;99.90;;;;;;5041803;28;20102;-69
2022/03/06 07:35:20;;;;;;;34.60;14.32;;;-1.80;99.90;;;;;;5039512;28;20025;-68
2022/03/06 07:37:46;;;;;;;33.00;13.68;;;-1.60;99.90;;;;;;5044006;28;20029;-67
2022/03/06 07:40:14;;;;;;;31.95;14.43;;;-1.60;99.90;;;;;;5039856;28;20466;-68
2022/03/06 07:42:40;;;;;;;29.35;14.10;;;-1.50;99.90;;;;;;5043541;28;20491;-69
2022/03/06 07:45:07;;;;;;;28.52;14.20;;;-1.40;99.90;;;;;;5041481;28;20068;-69
2022/03/06 07:47:32;;;;;;;30.70;13.73;;;-1.30;99.90;;;;;;5045204;28;20044;-69
2022/03/06 07:49:58;;;;;;;28.83;13.35;;;-1.20;99.90;;;;;;5047325;28;20021;-68
2022/03/06 07:52:24;;;;;;;30.70;13.13;;;-1.20;99.90;;;;;;5039035;28;20122;-68
2022/03/06 07:54:50;;;;;;;29.45;13.48;;;-1.10;99.90;;;;;;5043772;28;20172;-68
2022/03/06 07:57:16;;;;;;;29.02;13.98;;;-1.00;99.90;;;;;;5039039;28;20021;-69
2022/03/06 07:59:41;;;;;;;27.92;13.40;;;-1.00;99.90;;;;;;5033619;28;20354;-68
2022/03/06 08:02:07;;;;;;;30.15;12.52;;;-0.80;99.90;;;;;;5036271;28;20131;-68
2022/03/06 08:04:33;;;;;;;31.17;12.90;;;-0.80;99.90;;;;;;5033388;28;20025;-68
2022/03/06 08:06:58;;;;;;;29.83;13.98;;;-0.70;99.90;;;;;;5039523;28;20068;-69
2022/03/06 08:09:24;;;;;;;31.40;12.80;;;-0.60;99.90;;;;;;5038850;28;20072;-72
2022/03/06 08:11:51;;;;;;;29.60;12.52;;;-0.50;99.90;;;;;;5044220;28;20032;-66
2022/03/06 08:14:16;;;;;;;28.38;12.60;;;-0.50;99.90;;;;;;5044006;28;20025;-68
2022/03/06 08:16:42;;;;;;;26.50;13.30;;;-0.50;99.90;;;;;;5038640;28;20040;-68
2022/03/06 08:19:08;;;;;;;29.40;12.48;;;-0.50;99.90;;;;;;5041442;28;20577;-67
2022/03/06 08:21:34;;;;;;;30.70;12.43;;;-0.40;99.90;;;;;;5043243;28;20033;-68
2022/03/06 08:23:59;;;;;;;27.15;12.05;;;-0.40;99.90;;;;;;5044159;28;20036;-68
2022/03/06 08:26:25;;;;;;;26.95;11.93;;;-0.30;99.90;;;;;;5048051;28;20029;-68
2022/03/06 08:28:52;;;;;;;28.90;12.43;;;-0.30;99.90;;;;;;5045464;28;20029;-68
2022/03/06 08:31:18;;;;;;;31.30;13.40;;;-0.30;99.90;;;;;;5050185;28;20039;-68
2022/03/06 08:33:43;;;;;;;27.05;12.57;;;-0.20;99.90;;;;;;5049287;28;20104;-68
2022/03/06 08:36:09;;;;;;;29.45;13.35;;;-0.10;99.90;;;;;;5052351;28;20029;-68
2022/03/06 08:38:35;;;;;;;25.73;12.45;;;-0.10;99.90;;;;;;5044837;28;20032;-68
2022/03/06 08:41:01;;;;;;;33.20;14.05;;;0.00;99.90;;;;;;5044366;28;20564;-68
2022/03/06 08:43:26;;;;;;;28.25;12.80;;;0.00;99.90;;;;;;5036774;28;20067;-68
2022/03/06 08:45:52;;;;;;;26.05;12.38;;;0.10;99.90;;;;;;5045945;28;20430;-68
2022/03/06 08:48:18;;;;;;;28.27;12.85;;;0.10;99.90;;;;;;5044442;28;20051;-68
2022/03/06 08:50:43;;;;;;;28.80;12.60;;;0.20;99.90;;;;;;5050129;28;20033;-68
2022/03/06 08:53:09;;;;;;;25.83;11.93;;;0.20;99.90;;;;;;5041953;28;20551;-67
2022/03/06 08:55:35;;;;;;;30.90;13.68;;;0.30;99.90;;;;;;5048714;28;20052;-69
2022/03/06 08:58:01;;;;;;;26.77;12.52;;;0.40;99.90;;;;;;5040111;28;20033;-66
2022/03/06 09:00:26;;;;;;;26.83;13.20;;;0.50;99.90;;;;;;5045295;28;20025;-68
2022/03/06 09:02:52;;;;;;;27.63;12.23;;;0.50;99.90;;;;;;5046031;28;20029;-68
2022/03/06 09:05:20;;;;;;;26.30;12.98;;;0.60;99.90;;;;;;5058989;28;20058;-69
2022/03/06 09:07:46;;;;;;;29.75;13.95;;;0.70;99.90;;;;;;5038994;28;20052;-67
2022/03/06 09:10:12;;;;;;;25.88;12.82;;;0.70;99.90;;;;;;5051689;28;20033;-67
2022/03/06 09:12:39;;;;;;;26.27;12.48;;;0.80;99.90;;;;;;5044689;28;20045;-69
2022/03/06 09:15:05;;;;;;;27.50;13.00;;;0.80;99.90;;;;;;5044873;28;20052;-67
2022/03/06 09:17:31;;;;;;;28.20;12.20;;;0.90;99.90;;;;;;5047244;28;20066;-69
2022/03/06 09:19:57;;;;;;;24.52;12.13;;;0.90;99.90;;;;;;5049029;28;20021;-69
2022/03/06 09:22:23;;;;;;;27.10;13.23;;;1.00;99.90;;;;;;5049992;28;20029;-70
2022/03/06 09:24:49;;;;;;;28.48;12.82;;;1.10;99.90;;;;;;5039531;23;20374;-76
2022/03/06 09:27:15;;;;;;;29.30;12.25;;;1.30;99.90;;;;;;5027641;28;20087;-75
2022/03/06 09:29:40;;;;;;;24.15;11.45;;;1.40;99.90;;;;;;5018654;28;20076;-76
2022/03/06 09:32:07;;;;;;;27.20;12.35;;;1.50;99.90;;;;;;5020889;28;20052;-76
2022/03/06 09:34:33;;;;;;;24.02;11.35;;;1.60;99.90;;;;;;5021716;28;20101;-76
2022/03/06 09:36:59;;;;;;;23.33;11.68;;;1.70;99.90;;;;;;5017234;28;20025;-75
2022/03/06 09:39:24;;;;;;;22.83;11.10;;;1.70;99.90;;;;;;5020608;28;20037;-76
2022/03/06 09:41:53;;;;;;;25.98;11.82;;;1.70;99.90;;;;;;5021855;28;20024;-77
2022/03/06 09:44:22;;;;;;;23.00;11.02;;;1.80;99.90;;;;;;5024827;28;20013;-75
2022/03/06 09:46:48;;;;;;;24.13;11.48;;;1.90;99.90;;;;;;5024178;28;20109;-76
2022/03/06 09:49:14;;;;;;;23.58;11.63;;;2.00;99.90;;;;;;5020942;28;20055;-76
2022/03/06 09:51:41;;;;;;;24.63;10.52;;;1.90;99.90;;;;;;5022158;28;20021;-76
2022/03/06 09:54:08;;;;;;;23.80;10.70;;;2.00;99.60;;;;;;5026189;28;20551;-76
2022/03/06 09:56:34;;;;;;;23.35;11.90;;;2.00;99.40;;;;;;5030495;28;20375;-76
2022/03/06 09:59:00;;;;;;;25.55;10.98;;;2.20;99.00;;;;;;5027684;28;20116;-75
2022/03/06 10:01:26;;;;;;;26.02;12.43;;;2.20;99.00;;;;;;5028878;28;20052;-76
2022/03/06 10:03:52;;;;;;;22.35;10.82;;;2.30;99.00;;;;;;5019971;28;20065;-76
2022/03/06 10:06:17;;;;;;;24.38;11.25;;;2.30;97.90;;;;;;5023692;28;20378;-76
2022/03/06 10:08:43;;;;;;;15.43;8.00;;;2.40;95.20;;;;;;5025205;28;20021;-75
2022/03/06 10:11:12;;;;;;;18.30;8.35;;;2.60;92.50;;;;;;5025078;28;20486;-76
2022/03/06 10:13:42;;;;;;;16.92;8.27;;;2.70;90.20;;;;;;5024890;28;20055;-75
2022/03/06 10:16:19;;;;;;;21.88;9.18;;;2.80;88.90;;;;;;5027766;28;20828;-76
2022/03/06 10:18:50;;;;;;;18.58;8.80;;;2.90;88.70;;;;;;5029900;28;20028;-76
2022/03/06 10:21:29;;;;;;;17.95;8.13;;;2.90;88.20;;;;;;5020224;28;20025;-76
2022/03/06 10:24:01;;;;;;;16.23;8.40;;;3.00;85.10;;;;;;5020753;28;20030;-76
2022/03/06 10:26:34;;;;;;;18.85;8.48;;;3.20;84.40;;;;;;5021378;28;20029;-76
2022/03/06 10:29:03;;;;;;;14.95;7.43;;;3.30;82.10;;;;;;5024427;28;20041;-76
2022/03/06 10:31:31;;;;;;;17.23;8.18;;;3.40;81.00;;;;;;5027801;28;20061;-76
2022/03/06 10:34:08;;;;;;;17.60;8.27;;;3.60;78.30;;;;;;5026347;28;20429;-77
2022/03/06 10:36:44;;;;;;;15.35;8.15;;;3.60;77.60;;;;;;5021865;28;20052;-76
2022/03/06 10:39:18;;;;;;;16.80;8.60;;;3.70;76.90;;;;;;5025207;28;20494;-76
2022/03/06 10:41:47;;;;;;;14.75;7.38;;;3.70;74.70;;;;;;5026086;28;20478;-76
2022/03/06 10:44:14;;;;;;;17.23;8.57;;;3.70;74.60;;;;;;5031558;28;20690;-76
2022/03/06 10:46:41;;;;;;;18.52;8.20;;;3.80;73.60;;;;;;5023011;28;20041;-77
2022/03/06 10:49:12;;;;;;;17.90;8.80;;;3.80;73.70;;;;;;5019746;28;20040;-76
2022/03/06 10:51:46;;;;;;;19.02;8.50;;;3.90;72.90;;;;;;5012777;28;20553;-76
2022/03/06 10:54:14;;;;;;;17.92;8.05;;;4.00;73.40;;;;;;5025910;28;20458;-76
2022/03/06 10:56:43;;;;;;;17.77;8.40;;;4.10;72.00;;;;;;5020004;28;20034;-76
2022/03/06 10:59:09;;;;;;;14.10;8.00;;;4.10;71.10;;;;;;5019841;28;20404;-76
2022/03/06 11:01:37;;;;;;;16.00;7.60;;;4.20;70.50;;;;;;5025285;28;20018;-76
2022/03/06 11:04:06;;;;;;;16.17;7.82;;;4.20;70.00;;;;;;5028389;28;20025;-76
2022/03/06 11:06:42;;;;;;;16.77;8.93;;;4.20;70.50;;;;;;5019964;28;20033;-74
2022/03/06 11:09:16;;;;;;;18.45;8.75;;;4.20;70.70;;;;;;5019677;28;20033;-78
2022/03/06 11:11:46;;;;;;;20.23;9.68;;;4.30;70.10;;;;;;5024477;28;20029;-78
2022/03/06 11:14:13;;;;;;;18.90;9.05;;;4.30;69.80;;;;;;5024611;28;20581;-76
2022/03/06 11:16:40;;;;;;;19.25;8.82;;;4.30;70.50;;;;;;5025918;28;20037;-77
2022/03/06 11:19:07;;;;;;;17.60;9.65;;;4.30;69.50;;;;;;5026079;28;20071;-80
2022/03/06 11:21:35;;;;;;;17.42;9.05;;;4.40;69.50;;;;;;5026287;28;20081;-77
2022/03/06 11:24:16;;;;;;;15.68;8.45;;;4.50;68.40;;;;;;5022557;28;20026;-75
2022/03/06 11:27:20;;;;;;;17.02;8.27;;;4.50;68.50;;;;;;5027487;28;20022;-77
2022/03/06 11:30:00;;;;;;;17.98;9.00;;;4.50;67.60;;;;;;5022568;28;20065;-75
2022/03/06 11:32:28;;;;;;;18.73;9.02;;;4.60;67.70;;;;;;5018261;28;20030;-76
2022/03/06 11:35:03;;;;;;;19.17;9.27;;;4.80;67.80;;;;;;5028390;28;20041;-75
2022/03/06 11:37:29;;;;;;;20.50;10.50;;;4.80;66.20;;;;;;5026515;28;20029;-75
2022/03/06 11:39:55;;;;;;;18.30;10.45;;;4.80;65.80;;;;;;5029117;28;20028;-76
2022/03/06 11:42:48;;;;;;;19.17;9.50;;;4.90;65.40;;;;;;5025267;28;20032;-75
2022/03/06 11:45:53;;;;;;;19.75;9.68;;;4.90;65.30;;;;;;5015390;28;20033;-75
2022/03/06 11:48:23;;;;;;;;;;;4.80;65.00;;;;;;5018788;28;20033;-76
2022/03/06 11:51:24;;;;;;;16.20;7.72;;;4.80;65.40;;;;;;5025863;28;19916;-75
2022/03/06 11:53:54;;;;;;;16.40;8.55;;;4.70;65.20;;;;;;5009821;28;20056;-75
2022/03/06 11:56:34;;;;;;;20.83;8.80;;;4.70;65.40;;;;;;5028957;28;20335;-76
2022/03/06 11:59:09;;;;;;;15.48;7.88;;;4.60;65.90;;;;;;5028515;28;20417;-75
2022/03/06 12:01:35;;;;;;;17.40;8.40;;;4.50;65.60;;;;;;5025175;28;20716;-75
2022/03/06 12:04:24;;;;;;;16.27;8.50;;;4.50;66.10;;;;;;5025004;28;20076;-79
2022/03/06 12:07:03;;;;;;;15.73;8.45;;;4.40;66.50;;;;;;5037334;28;20025;-78
2022/03/06 12:09:34;;;;;;;19.92;8.98;;;4.40;66.80;;;;;;5042433;28;20040;-77
2022/03/06 12:12:09;;;;;;;20.25;9.80;;;4.50;66.20;;;;;;5024905;28;20036;-76
2022/03/06 12:14:39;;;;;;;19.83;9.18;;;4.50;66.30;;;;;;5039654;28;20048;-77
2022/03/06 12:17:06;;;;;;;22.95;9.77;;;4.50;65.90;;;;;;5023824;28;20022;-77
2022/03/06 12:19:43;;;;;;;22.63;9.70;;;4.40;65.20;;;;;;5022224;28;20030;-74
2022/03/06 12:22:21;;;;;;;23.05;9.80;;;4.50;65.50;;;;;;5022116;28;20132;-76
2022/03/06 12:25:10;;;;;;;18.65;8.82;;;4.60;65.30;;;;;;5030272;28;20040;-76
2022/03/06 12:27:39;;;;;;;17.17;8.95;;;4.60;64.80;;;;;;5025730;28;20078;-78
2022/03/06 12:30:06;;;;;;;19.92;9.70;;;4.70;64.70;;;;;;5028954;28;20494;-76
2022/03/06 12:32:37;;;;;;;16.33;8.30;;;4.70;64.60;;;;;;5029504;28;20030;-79
2022/03/06 12:35:06;;;;;;;16.38;7.97;;;4.70;63.80;;;;;;5023493;28;20104;-76